createdAt,value
2018-09-02T00:00:49.798Z,100677.00
2018-09-02T00:03:19.143Z,100681.00
2018-09-02T00:05:48.416Z,100680.00
2018-09-02T00:08:17.752Z,100683.00
2018-09-02T00:10:46.829Z,100681.00
2018-09-02T00:13:16.110Z,100677.00
2018-09-02T00:15:45.468Z,100678.00
2018-09-02T00:18:15.204Z,100669.00
2018-09-02T00:20:44.267Z,100661.00
2018-09-02T00:23:14.111Z,100664.00
2018-09-02T00:25:44.611Z,100674.00
2018-09-02T00:28:13.956Z,100657.00
2018-09-02T00:30:43.335Z,100667.00
2018-09-02T00:33:12.525Z,100664.00
2018-09-02T00:35:41.838Z,100655.00
2018-09-02T00:38:11.191Z,100654.00
2018-09-02T00:40:40.621Z,100653.00
2018-09-02T00:43:11.049Z,100656.00
2018-09-02T00:45:40.373Z,100649.00
2018-09-02T00:48:09.890Z,100653.00
2018-09-02T00:50:39.222Z,100647.00
2018-09-02T00:53:08.578Z,100649.00
2018-09-02T00:55:37.961Z,100655.00
2018-09-02T00:58:07.405Z,100651.00
2018-09-02T01:00:36.819Z,100649.00
2018-09-02T01:03:06.187Z,100659.00
2018-09-02T01:05:35.632Z,100654.00
2018-09-02T01:08:04.989Z,100651.00
2018-09-02T01:10:34.332Z,100649.00
2018-09-02T01:13:03.623Z,100660.00
2018-09-02T01:15:32.910Z,100656.00
2018-09-02T01:18:02.268Z,100655.00
2018-09-02T01:20:31.723Z,100656.00
2018-09-02T01:23:01.079Z,100658.00
2018-09-02T01:25:30.399Z,100660.00
2018-09-02T01:27:59.705Z,100654.00
2018-09-02T01:30:29.005Z,100659.00
2018-09-02T01:32:58.093Z,100649.00
2018-09-02T01:35:34.409Z,100652.00
2018-09-02T01:38:05.191Z,100651.00
2018-09-02T01:40:35.427Z,100647.00
2018-09-02T01:43:05.304Z,100644.00
2018-09-02T01:45:34.832Z,100646.00
2018-09-02T01:48:04.335Z,100644.00
2018-09-02T01:50:33.602Z,100641.00
2018-09-02T01:53:02.913Z,100639.00
2018-09-02T01:55:32.245Z,100642.00
2018-09-02T01:58:01.593Z,100641.00
2018-09-02T02:00:30.945Z,100646.00
2018-09-02T02:03:00.186Z,100654.00
2018-09-02T02:05:29.564Z,100652.00
2018-09-02T02:07:58.836Z,100641.00
2018-09-02T02:10:28.346Z,100652.00
2018-09-02T02:12:58.642Z,100649.00
2018-09-02T02:15:27.875Z,100648.00
2018-09-02T02:17:57.160Z,100653.00
2018-09-02T02:20:27.412Z,100644.00
2018-09-02T02:22:56.700Z,100638.00
2018-09-02T02:25:26.044Z,100640.00
2018-09-02T02:27:55.479Z,100637.00
2018-09-02T02:30:24.775Z,100635.00
2018-09-02T02:32:53.866Z,100638.00
2018-09-02T02:35:23.153Z,100635.00
2018-09-02T02:37:52.206Z,100634.00
2018-09-02T02:40:21.523Z,100639.00
2018-09-02T02:42:50.782Z,100639.00
2018-09-02T02:45:20.155Z,100643.00
2018-09-02T02:47:49.521Z,100640.00
2018-09-02T02:50:18.500Z,100641.00
2018-09-02T02:52:52.897Z,100637.00
2018-09-02T02:55:22.367Z,100635.00
2018-09-02T02:57:51.677Z,100633.00
2018-09-02T03:00:20.963Z,100632.00
2018-09-02T03:02:50.309Z,100631.00
2018-09-02T03:05:19.625Z,100635.00
2018-09-02T03:07:49.062Z,100632.00
2018-09-02T03:10:18.570Z,100623.00
2018-09-02T03:12:47.888Z,100622.00
2018-09-02T03:15:17.710Z,100619.00
2018-09-02T03:17:46.952Z,100619.00
2018-09-02T03:20:16.287Z,100613.00
2018-09-02T03:22:45.627Z,100617.00
2018-09-02T03:25:14.985Z,100603.00
2018-09-02T03:27:44.042Z,100605.00
2018-09-02T03:30:14.057Z,100612.00
2018-09-02T03:32:43.431Z,100613.00
2018-09-02T03:35:12.767Z,100611.00
2018-09-02T03:37:42.020Z,100608.00
2018-09-02T03:40:11.734Z,100610.00
2018-09-02T03:42:41.075Z,100614.00
2018-09-02T03:45:10.442Z,100617.00
2018-09-02T03:47:39.771Z,100614.00
2018-09-02T03:50:09.108Z,100609.00
2018-09-02T03:52:38.712Z,100613.00
2018-09-02T03:55:08.020Z,100607.00
2018-09-02T03:57:37.310Z,100605.00
2018-09-02T04:00:06.984Z,100599.00
2018-09-02T04:02:36.321Z,100595.00
2018-09-02T04:05:05.960Z,100597.00
2018-09-02T04:07:35.114Z,100598.00
2018-09-02T04:10:04.290Z,100597.00
2018-09-02T04:12:33.423Z,100597.00
2018-09-02T04:15:02.602Z,100590.00
2018-09-02T04:17:31.827Z,100589.00
2018-09-02T04:20:01.094Z,100598.00
2018-09-02T04:22:30.386Z,100597.00
2018-09-02T04:24:59.746Z,100589.00
2018-09-02T04:27:28.980Z,100581.00
2018-09-02T04:29:58.322Z,100586.00
2018-09-02T04:32:27.646Z,100591.00
2018-09-02T04:34:56.985Z,100588.00
2018-09-02T04:37:26.287Z,100591.00
2018-09-02T04:39:55.660Z,100582.00
2018-09-02T04:42:24.755Z,100591.00
2018-09-02T04:44:54.026Z,100594.00
2018-09-02T04:47:23.393Z,100586.00
2018-09-02T04:49:52.518Z,100583.00
2018-09-02T04:52:21.790Z,100578.00
2018-09-02T04:54:50.720Z,100583.00
2018-09-02T04:57:20.028Z,100586.00
2018-09-02T04:59:49.130Z,100596.00
2018-09-02T05:02:18.395Z,100595.00
2018-09-02T05:04:47.710Z,100598.00
2018-09-02T05:07:17.065Z,100599.00
2018-09-02T05:09:46.393Z,100592.00
2018-09-02T05:12:15.741Z,100592.00
2018-09-02T05:14:45.129Z,100596.00
2018-09-02T05:17:14.479Z,100582.00
2018-09-02T05:19:43.843Z,100590.00
2018-09-02T05:22:13.263Z,100594.00
2018-09-02T05:24:42.746Z,100592.00
2018-09-02T05:27:12.137Z,100594.00
2018-09-02T05:29:41.206Z,100591.00
2018-09-02T05:32:10.504Z,100583.00
2018-09-02T05:34:39.840Z,100580.00
2018-09-02T05:37:09.122Z,100588.00
2018-09-02T05:39:38.554Z,100582.00
2018-09-02T05:42:07.878Z,100576.00
2018-09-02T05:44:37.118Z,100579.00
2018-09-02T05:47:07.772Z,100582.00
2018-09-02T05:49:36.747Z,100580.00
2018-09-02T05:52:06.101Z,100577.00
2018-09-02T05:54:35.534Z,100576.00
2018-09-02T05:57:04.896Z,100578.00
2018-09-02T05:59:34.443Z,100575.00
2018-09-02T06:02:04.178Z,100573.00
2018-09-02T06:04:33.534Z,100576.00
2018-09-02T06:07:02.877Z,100571.00
2018-09-02T06:09:32.820Z,100569.00
2018-09-02T06:12:03.138Z,100570.00
2018-09-02T06:14:32.201Z,100572.00
2018-09-02T06:17:01.474Z,100568.00
2018-09-02T06:19:31.218Z,100567.00
2018-09-02T06:22:00.456Z,100565.00
2018-09-02T06:24:29.796Z,100563.00
2018-09-02T06:26:59.900Z,100565.00
2018-09-02T06:29:29.216Z,100565.00
2018-09-02T06:31:58.509Z,100561.00
2018-09-02T06:34:27.858Z,100565.00
2018-09-02T06:36:57.199Z,100566.00
2018-09-02T06:39:27.298Z,100574.00
2018-09-02T06:41:56.666Z,100574.00
2018-09-02T06:44:26.004Z,100575.00
2018-09-02T06:46:55.256Z,100575.00
2018-09-02T06:49:24.275Z,100579.00
2018-09-02T06:51:53.567Z,100577.00
2018-09-02T06:54:27.766Z,100579.00
2018-09-02T06:56:57.196Z,100582.00
2018-09-02T06:59:26.560Z,100580.00
2018-09-02T07:01:55.824Z,100581.00
2018-09-02T07:04:24.915Z,100589.00
2018-09-02T07:06:54.311Z,100579.00
2018-09-02T07:09:23.379Z,100579.00
2018-09-02T07:11:52.845Z,100577.00
2018-09-02T07:14:22.250Z,100590.00
2018-09-02T07:16:51.657Z,100580.00
2018-09-02T07:19:21.162Z,100587.00
2018-09-02T07:21:50.548Z,100581.00
2018-09-02T07:24:20.629Z,100579.00
2018-09-02T07:26:49.728Z,100576.00
2018-09-02T07:29:19.062Z,100581.00
2018-09-02T07:31:48.295Z,100588.00
2018-09-02T07:34:17.347Z,100596.00
2018-09-02T07:36:46.320Z,100598.00
2018-09-02T07:39:15.676Z,100593.00
2018-09-02T07:41:44.884Z,100605.00
2018-09-02T07:44:14.298Z,100599.00
2018-09-02T07:46:43.611Z,100593.00
2018-09-02T07:49:12.693Z,100603.00
2018-09-02T07:51:42.055Z,100597.00
2018-09-02T07:54:11.411Z,100601.00
2018-09-02T07:56:40.756Z,100602.00
2018-09-02T07:59:10.163Z,100597.00
2018-09-02T08:01:39.195Z,100600.00
2018-09-02T08:04:08.573Z,100600.00
2018-09-02T08:06:37.941Z,100595.00
2018-09-02T08:09:08.715Z,100590.00
2018-09-02T08:11:37.959Z,100592.00
2018-09-02T08:14:07.232Z,100599.00
2018-09-02T08:16:37.119Z,100596.00
2018-09-02T08:19:05.958Z,100590.00
2018-09-02T08:21:35.237Z,100588.00
2018-09-02T08:24:04.521Z,100593.00
2018-09-02T08:26:33.782Z,100591.00
2018-09-02T08:29:03.040Z,100588.00
2018-09-02T08:31:32.079Z,100589.00
2018-09-02T08:34:01.171Z,100569.00
2018-09-02T08:36:30.566Z,100570.00
2018-09-02T08:38:59.956Z,100576.00
2018-09-02T08:41:29.244Z,100571.00
2018-09-02T08:43:58.497Z,100570.00
2018-09-02T08:46:27.568Z,100564.00
2018-09-02T08:48:56.891Z,100568.00
2018-09-02T08:51:26.166Z,100588.00
2018-09-02T08:53:55.194Z,100576.00
2018-09-02T08:56:24.664Z,100562.00
2018-09-02T08:58:53.988Z,100565.00
2018-09-02T09:01:23.443Z,100564.00
2018-09-02T09:03:52.773Z,100567.00
2018-09-02T09:06:22.204Z,100565.00
2018-09-02T09:08:51.511Z,100556.00
2018-09-02T09:11:20.678Z,100568.00
2018-09-02T09:13:49.681Z,100560.00
2018-09-02T09:16:18.757Z,100567.00
2018-09-02T09:18:48.041Z,100560.00
2018-09-02T09:21:17.367Z,100561.00
2018-09-02T09:23:46.697Z,100548.00
2018-09-02T09:26:15.824Z,100559.00
2018-09-02T09:28:45.274Z,100554.00
2018-09-02T09:31:14.685Z,100560.00
2018-09-02T09:33:44.042Z,100564.00
2018-09-02T09:36:14.028Z,100560.00
2018-09-02T09:38:43.285Z,100552.00
2018-09-02T09:41:12.642Z,100552.00
2018-09-02T09:43:41.917Z,100554.00
2018-09-02T09:46:11.054Z,100549.00
2018-09-02T09:48:40.378Z,100553.00
2018-09-02T09:51:09.764Z,100553.00
2018-09-02T09:53:39.076Z,100562.00
2018-09-02T09:56:08.470Z,100547.00
2018-09-02T09:58:37.571Z,100547.00
2018-09-02T10:01:07.302Z,100542.00
2018-09-02T10:03:36.335Z,100542.00
2018-09-02T10:06:05.807Z,100541.00
2018-09-02T10:08:35.060Z,100541.00
2018-09-02T10:11:04.076Z,100546.00
2018-09-02T10:13:33.448Z,100537.00
2018-09-02T10:16:02.850Z,100533.00
2018-09-02T10:18:32.153Z,100529.00
2018-09-02T10:21:01.522Z,100527.00
2018-09-02T10:23:30.874Z,100528.00
2018-09-02T10:26:00.208Z,100528.00
2018-09-02T10:28:29.623Z,100528.00
2018-09-02T10:30:58.660Z,100522.00
2018-09-02T10:33:28.099Z,100520.00
2018-09-02T10:35:57.435Z,100523.00
2018-09-02T10:38:26.550Z,100513.00
2018-09-02T10:40:55.623Z,100515.00
2018-09-02T10:43:24.926Z,100520.00
2018-09-02T10:45:54.201Z,100518.00
2018-09-02T10:48:23.486Z,100510.00
2018-09-02T10:50:52.961Z,100511.00
2018-09-02T10:53:22.012Z,100514.00
2018-09-02T10:55:51.364Z,100499.00
2018-09-02T10:58:20.510Z,100505.00
2018-09-02T11:00:49.535Z,100501.00
2018-09-02T11:03:18.817Z,100498.00
2018-09-02T11:05:48.138Z,100491.00
2018-09-02T11:08:17.235Z,100489.00
2018-09-02T11:10:46.604Z,100486.00
2018-09-02T11:13:16.120Z,100479.00
2018-09-02T11:15:45.624Z,100482.00
2018-09-02T11:18:15.044Z,100483.00
2018-09-02T11:20:44.427Z,100484.00
2018-09-02T11:23:13.913Z,100474.00
2018-09-02T11:25:43.299Z,100467.00
2018-09-02T11:28:13.149Z,100470.00
2018-09-02T11:30:42.424Z,100468.00
2018-09-02T11:33:11.484Z,100466.00
2018-09-02T11:35:40.513Z,100464.00
2018-09-02T11:38:09.520Z,100470.00
2018-09-02T11:40:38.544Z,100465.00
2018-09-02T11:43:07.887Z,100470.00
2018-09-02T11:45:37.077Z,100464.00
2018-09-02T11:48:06.409Z,100462.00
2018-09-02T11:50:35.479Z,100452.00
2018-09-02T11:53:04.891Z,100463.00
2018-09-02T11:55:34.213Z,100464.00
2018-09-02T11:58:03.473Z,100462.00
2018-09-02T12:00:32.503Z,100454.00
2018-09-02T12:03:01.806Z,100456.00
2018-09-02T12:05:31.199Z,100463.00
2018-09-02T12:08:01.245Z,100458.00
2018-09-02T12:10:30.636Z,100456.00
2018-09-02T12:13:00.389Z,100456.00
2018-09-02T12:15:29.489Z,100449.00
2018-09-02T12:17:58.503Z,100447.00
2018-09-02T12:20:27.518Z,100453.00
2018-09-02T12:22:56.827Z,100450.00
2018-09-02T12:25:26.147Z,100456.00
2018-09-02T12:27:55.472Z,100453.00
2018-09-02T12:30:24.742Z,100461.00
2018-09-02T12:32:54.065Z,100455.00
2018-09-02T12:35:23.381Z,100450.00
2018-09-02T12:37:52.690Z,100451.00
2018-09-02T12:40:22.020Z,100450.00
2018-09-02T12:42:51.387Z,100452.00
2018-09-02T12:45:20.714Z,100447.00
2018-09-02T12:47:50.141Z,100450.00
2018-09-02T12:50:19.364Z,100454.00
2018-09-02T12:52:48.647Z,100459.00
2018-09-02T12:55:18.183Z,100455.00
2018-09-02T12:57:47.448Z,100452.00
2018-09-02T13:00:16.555Z,100452.00
2018-09-02T13:02:45.657Z,100449.00
2018-09-02T13:05:21.676Z,100453.00
2018-09-02T13:07:50.700Z,100449.00
2018-09-02T13:10:20.237Z,100447.00
2018-09-02T13:12:49.663Z,100443.00
2018-09-02T13:15:18.895Z,100447.00
2018-09-02T13:17:47.952Z,100438.00
2018-09-02T13:20:17.249Z,100436.00
2018-09-02T13:22:46.473Z,100441.00
2018-09-02T13:25:15.771Z,100435.00
2018-09-02T13:27:44.834Z,100430.00
2018-09-02T13:30:14.247Z,100432.00
2018-09-02T13:32:43.593Z,100432.00
2018-09-02T13:35:13.092Z,100426.00
2018-09-02T13:37:42.541Z,100428.00
2018-09-02T13:40:12.172Z,100421.00
2018-09-02T13:42:41.492Z,100431.00
2018-09-02T13:45:10.859Z,100426.00
2018-09-02T13:47:40.226Z,100424.00
2018-09-02T13:50:09.656Z,100408.00
2018-09-02T13:52:38.955Z,100419.00
2018-09-02T13:55:08.244Z,100415.00
2018-09-02T13:57:47.682Z,100417.00
2018-09-02T14:00:17.608Z,100404.00
2018-09-02T14:02:46.737Z,100410.00
2018-09-02T14:05:16.113Z,100405.00
2018-09-02T14:07:45.223Z,100398.00
2018-09-02T14:10:14.210Z,100400.00
2018-09-02T14:12:44.096Z,100391.00
2018-09-02T14:15:14.426Z,100394.00
2018-09-02T14:17:44.302Z,100389.00
2018-09-02T14:20:13.642Z,100388.00
2018-09-02T14:22:43.002Z,100395.00
2018-09-02T14:25:12.459Z,100395.00
2018-09-02T14:27:41.886Z,100381.00
2018-09-02T14:30:11.362Z,100387.00
2018-09-02T14:32:40.675Z,100376.00
2018-09-02T14:35:10.077Z,100375.00
2018-09-02T14:37:39.488Z,100371.00
2018-09-02T14:40:08.904Z,100380.00
2018-09-02T14:42:38.232Z,100381.00
2018-09-02T14:45:07.674Z,100374.00
2018-09-02T14:47:37.017Z,100374.00
2018-09-02T14:50:06.375Z,100367.00
2018-09-02T14:52:35.677Z,100379.00
2018-09-02T14:55:04.873Z,100375.00
2018-09-02T14:57:34.180Z,100376.00
2018-09-02T15:00:03.487Z,100377.00
2018-09-02T15:02:32.864Z,100377.00
2018-09-02T15:05:02.388Z,100374.00
2018-09-02T15:07:31.825Z,100379.00
2018-09-02T15:10:01.182Z,100384.00
2018-09-02T15:12:30.258Z,100390.00
2018-09-02T15:14:59.632Z,100387.00
2018-09-02T15:17:28.860Z,100396.00
2018-09-02T15:19:58.076Z,100401.00
2018-09-02T15:22:27.092Z,100394.00
2018-09-02T15:24:56.443Z,100393.00
2018-09-02T15:27:25.823Z,100396.00
2018-09-02T15:29:55.192Z,100390.00
2018-09-02T15:32:24.567Z,100387.00
2018-09-02T15:34:53.874Z,100384.00
2018-09-02T15:37:23.156Z,100384.00
2018-09-02T15:39:54.847Z,100372.00
2018-09-02T15:42:24.211Z,100374.00
2018-09-02T15:44:54.372Z,100373.00
2018-09-02T15:47:23.768Z,100382.00
2018-09-02T15:49:52.861Z,100372.00
2018-09-02T15:52:22.076Z,100376.00
2018-09-02T15:54:51.509Z,100374.00
2018-09-02T15:57:20.877Z,100374.00
2018-09-02T15:59:50.314Z,100375.00
2018-09-02T16:02:19.641Z,100367.00
2018-09-02T16:04:48.703Z,100369.00
2018-09-02T16:07:17.833Z,100364.00
2018-09-02T16:09:47.186Z,100366.00
2018-09-02T16:12:16.421Z,100371.00
2018-09-02T16:14:45.667Z,100370.00
2018-09-02T16:17:14.858Z,100370.00
2018-09-02T16:19:44.172Z,100365.00
2018-09-02T16:22:13.169Z,100370.00
2018-09-02T16:24:42.508Z,100361.00
2018-09-02T16:27:11.815Z,100360.00
2018-09-02T16:29:41.342Z,100362.00
2018-09-02T16:32:20.101Z,100367.00
2018-09-02T16:34:49.877Z,100366.00
2018-09-02T16:37:19.199Z,100360.00
2018-09-02T16:39:48.631Z,100358.00
2018-09-02T16:42:18.099Z,100357.00
2018-09-02T16:44:47.318Z,100359.00
2018-09-02T16:47:30.032Z,100347.00
2018-09-02T16:49:59.377Z,100350.00
2018-09-02T16:52:28.505Z,100355.00
2018-09-02T16:54:57.645Z,100364.00
2018-09-02T16:57:27.047Z,100355.00
2018-09-02T16:59:56.450Z,100348.00
2018-09-02T17:02:25.576Z,100350.00
2018-09-02T17:04:59.091Z,100348.00
2018-09-02T17:07:29.029Z,100338.00
2018-09-02T17:10:14.680Z,100341.00
2018-09-02T17:15:43.708Z,100335.00
2018-09-02T17:18:13.085Z,100339.00
2018-09-02T17:20:44.911Z,100335.00
2018-09-02T17:23:14.894Z,100335.00
2018-09-02T17:25:53.385Z,100324.00
2018-09-02T17:28:22.708Z,100334.00
2018-09-02T17:30:51.931Z,100330.00
2018-09-02T17:33:25.443Z,100334.00
2018-09-02T17:35:54.584Z,100336.00
2018-09-02T17:38:23.969Z,100338.00
2018-09-02T17:40:53.666Z,100330.00
2018-09-02T17:43:23.277Z,100324.00
2018-09-02T17:46:06.547Z,100331.00
2018-09-02T17:48:35.919Z,100332.00
2018-09-02T17:51:05.411Z,100339.00
2018-09-02T17:53:34.804Z,100322.00
2018-09-02T17:56:03.844Z,100333.00
2018-09-02T17:58:33.206Z,100330.00
2018-09-02T18:01:02.652Z,100332.00
2018-09-02T18:03:31.841Z,100338.00
2018-09-02T18:06:01.062Z,100335.00
2018-09-02T18:08:30.505Z,100333.00
2018-09-02T18:10:59.845Z,100331.00
2018-09-02T18:13:29.133Z,100335.00
2018-09-02T18:15:58.526Z,100333.00
2018-09-02T18:18:27.659Z,100332.00
2018-09-02T18:20:57.625Z,100338.00
2018-09-02T18:23:27.091Z,100339.00
2018-09-02T18:25:56.471Z,100342.00
2018-09-02T18:28:28.768Z,100349.00
2018-09-02T18:30:58.126Z,100344.00
2018-09-02T18:33:27.463Z,100335.00
2018-09-02T18:35:56.887Z,100317.00
2018-09-02T18:38:26.451Z,100320.00
2018-09-02T18:40:55.578Z,100319.00
2018-09-02T18:43:24.940Z,100317.00
2018-09-02T18:45:54.265Z,100318.00
2018-09-02T18:48:23.349Z,100316.00
2018-09-02T18:50:52.634Z,100303.00
2018-09-02T18:53:21.949Z,100307.00
2018-09-02T18:56:01.268Z,100309.00
2018-09-02T18:58:30.661Z,100296.00
2018-09-02T19:01:01.721Z,100282.00
2018-09-02T19:03:30.780Z,100289.00
2018-09-02T19:06:00.601Z,100287.00
2018-09-02T19:08:29.952Z,100292.00
2018-09-02T19:10:59.011Z,100283.00
2018-09-02T19:13:28.386Z,100279.00
2018-09-02T19:15:57.709Z,100265.00
2018-09-02T19:18:27.009Z,100268.00
2018-09-02T19:20:56.456Z,100270.00
2018-09-02T19:23:25.606Z,100267.00
2018-09-02T19:28:56.159Z,100257.00
2018-09-02T19:34:39.142Z,100254.00
2018-09-02T19:37:08.636Z,100246.00
2018-09-02T19:39:38.013Z,100252.00
2018-09-02T19:42:13.867Z,100247.00
2018-09-02T19:44:43.161Z,100254.00
2018-09-02T19:47:12.196Z,100254.00
2018-09-02T19:49:41.768Z,100260.00
2018-09-02T19:52:11.353Z,100253.00
2018-09-02T19:54:40.531Z,100254.00
2018-09-02T19:57:09.597Z,100258.00
2018-09-02T19:59:38.928Z,100256.00
2018-09-02T20:02:08.314Z,100254.00
2018-09-02T20:04:37.774Z,100253.00
2018-09-02T20:07:07.104Z,100253.00
2018-09-02T20:09:36.208Z,100254.00
2018-09-02T20:12:05.466Z,100255.00
2018-09-02T20:14:34.808Z,100249.00
2018-09-02T20:17:04.166Z,100250.00
2018-09-02T20:19:33.986Z,100249.00
2018-09-02T20:22:03.454Z,100248.00
2018-09-02T20:24:32.535Z,100250.00
2018-09-02T20:27:01.698Z,100243.00
2018-09-02T20:29:30.792Z,100240.00
2018-09-02T20:32:00.201Z,100249.00
2018-09-02T20:34:29.525Z,100242.00
2018-09-02T20:36:58.684Z,100235.00
2018-09-02T20:39:27.756Z,100233.00
2018-09-02T20:41:57.146Z,100235.00
2018-09-02T20:44:26.203Z,100235.00
2018-09-02T20:46:56.124Z,100235.00
2018-09-02T20:49:25.462Z,100224.00
2018-09-02T20:51:54.487Z,100223.00
2018-09-02T20:54:23.829Z,100218.00
2018-09-02T20:56:53.188Z,100219.00
2018-09-02T20:59:22.525Z,100217.00
2018-09-02T21:01:51.857Z,100215.00
2018-09-02T21:04:21.223Z,100207.00
2018-09-02T21:06:50.534Z,100208.00
2018-09-02T21:09:19.712Z,100204.00
2018-09-02T21:11:49.034Z,100202.00
2018-09-02T21:14:18.393Z,100205.00
2018-09-02T21:16:47.740Z,100205.00
2018-09-02T21:19:16.810Z,100205.00
2018-09-02T21:21:46.105Z,100200.00
2018-09-02T21:24:15.204Z,100186.00
2018-09-02T21:26:44.908Z,100190.00
2018-09-02T21:29:14.200Z,100183.00
2018-09-02T21:31:43.653Z,100178.00
2018-09-02T21:34:13.224Z,100175.00
2018-09-02T21:36:42.740Z,100174.00
2018-09-02T21:39:11.744Z,100175.00
2018-09-02T21:41:41.007Z,100171.00
2018-09-02T21:44:10.087Z,100156.00
2018-09-02T21:46:39.439Z,100151.00
2018-09-02T21:49:08.770Z,100151.00
2018-09-02T21:51:38.170Z,100148.00
2018-09-02T21:54:07.598Z,100143.00
2018-09-02T21:56:36.956Z,100129.00
2018-09-02T21:59:06.269Z,100135.00
2018-09-02T22:01:35.611Z,100129.00
2018-09-02T22:04:04.914Z,100122.00
2018-09-02T22:06:34.269Z,100132.00
2018-09-02T22:09:09.690Z,100126.00
2018-09-02T22:11:39.033Z,100131.00
2018-09-02T22:14:08.175Z,100126.00
2018-09-02T22:16:37.592Z,100120.00
2018-09-02T22:19:06.801Z,100116.00
2018-09-02T22:21:36.193Z,100120.00
2018-09-02T22:24:05.663Z,100120.00
2018-09-02T22:26:35.109Z,100109.00
2018-09-02T22:29:04.740Z,100109.00
2018-09-02T22:31:34.037Z,100109.00
2018-09-02T22:34:03.381Z,100101.00
2018-09-02T22:36:32.760Z,100111.00
2018-09-02T22:39:02.053Z,100100.00
2018-09-02T22:41:31.370Z,100099.00
2018-09-02T22:44:00.731Z,100095.00
2018-09-02T22:46:30.065Z,100090.00
2018-09-02T22:48:59.418Z,100102.00
2018-09-02T22:51:28.511Z,100092.00
2018-09-02T22:53:57.907Z,100083.00
2018-09-02T22:56:27.245Z,100087.00
2018-09-02T22:58:56.281Z,100084.00
2018-09-02T23:01:25.588Z,100087.00
2018-09-02T23:03:55.005Z,100077.00
2018-09-02T23:06:24.094Z,100092.00
2018-09-02T23:08:53.381Z,100091.00
2018-09-02T23:11:22.722Z,100086.00
2018-09-02T23:13:52.040Z,100083.00
2018-09-02T23:16:21.126Z,100064.00
2018-09-02T23:18:50.176Z,100067.00
2018-09-02T23:21:19.584Z,100054.00
2018-09-02T23:23:48.829Z,100049.00
2018-09-02T23:26:18.085Z,100042.00
2018-09-02T23:28:47.558Z,100037.00
2018-09-02T23:31:16.827Z,100035.00
2018-09-02T23:33:45.835Z,100027.00
2018-09-02T23:36:15.193Z,100029.00
2018-09-02T23:38:44.977Z,100031.00
2018-09-02T23:41:14.318Z,100029.00
2018-09-02T23:43:43.726Z,100028.00
2018-09-02T23:46:13.112Z,100042.00
2018-09-02T23:48:42.413Z,100036.00
2018-09-02T23:51:11.490Z,100038.00
2018-09-02T23:56:37.808Z,100041.00
2018-09-02T23:59:07.180Z,100038.00
